Time,TemperatureF,DewpointF,PressureIn,WindDirection,WindDirectionDegrees,WindSpeedMPH,WindSpeedGustMPH,Humidity,HourlyPrecipIn,Conditions,Clouds,dailyrainin,SoftwareType,DateUTC
2013-07-02 00:02:00,61.3,54.9,30.01,SSE,158,0.0,0.0,79,0.00,,,0.00,meteohub,2013-07-02 05:02:00,
2013-07-02 00:07:00,61.0,54.5,30.01,SSE,158,0.0,0.0,79,0.00,,,0.00,meteohub,2013-07-02 05:07:00,
2013-07-02 00:12:00,61.0,54.5,30.01,SSE,158,0.0,0.0,79,0.00,,,0.00,meteohub,2013-07-02 05:12:00,
2013-07-02 00:17:00,60.6,54.5,30.01,SSE,158,0.0,0.0,80,0.00,,,0.00,meteohub,2013-07-02 05:17:00,
2013-07-02 00:22:00,60.6,54.5,30.01,SSE,158,0.0,0.0,80,0.00,,,0.00,meteohub,2013-07-02 05:22:00,
2013-07-02 00:27:00,60.6,54.5,30.01,SSE,158,0.0,0.0,80,0.00,,,0.00,meteohub,2013-07-02 05:27:00,
2013-07-02 00:32:00,60.3,54.3,30.01,SSE,158,0.0,0.0,81,0.00,,,0.00,meteohub,2013-07-02 05:32:00,
2013-07-02 00:37:00,60.3,54.3,30.01,SSE,158,0.0,0.0,81,0.00,,,0.00,meteohub,2013-07-02 05:37:00,
2013-07-02 00:42:00,60.1,54.3,30.01,SSE,158,0.0,0.0,81,0.00,,,0.00,meteohub,2013-07-02 05:42:00,
2013-07-02 00:47:00,60.1,54.3,30.01,SSE,158,0.0,0.0,81,0.00,,,0.00,meteohub,2013-07-02 05:47:00,
2013-07-02 00:52:00,60.1,54.3,30.01,SSE,158,0.0,0.0,81,0.00,,,0.00,meteohub,2013-07-02 05:52:00,
2013-07-02 00:57:00,59.9,54.1,30.00,SSE,158,0.0,0.0,81,0.00,,,0.00,meteohub,2013-07-02 05:57:00,
2013-07-02 01:02:00,59.9,54.1,30.00,SSE,158,0.0,0.0,81,0.00,,,0.00,meteohub,2013-07-02 06:02:00,
2013-07-02 01:07:00,59.9,54.1,30.00,SSE,158,0.0,0.0,81,0.00,,,0.00,meteohub,2013-07-02 06:07:00,
2013-07-02 01:12:00,59.9,54.3,30.00,SSE,158,0.0,0.0,82,0.00,,,0.00,meteohub,2013-07-02 06:12:00,
2013-07-02 01:17:00,59.9,54.3,30.00,SSE,158,0.0,0.0,82,0.00,,,0.00,meteohub,2013-07-02 06:17:00,
2013-07-02 01:22:00,59.7,54.1,30.00,SSE,158,0.0,0.0,82,0.00,,,0.00,meteohub,2013-07-02 06:22:00,
2013-07-02 01:27:00,59.5,54.0,30.00,SSE,158,0.0,0.0,82,0.00,,,0.00,meteohub,2013-07-02 06:27:00,
2013-07-02 01:33:00,59.4,53.8,30.00,SSE,158,0.0,0.0,82,0.00,,,0.00,meteohub,2013-07-02 06:33:00,
2013-07-02 01:38:00,59.4,53.8,30.00,SSE,158,0.0,0.0,82,0.00,,,0.00,meteohub,2013-07-02 06:38:00,
2013-07-02 01:43:00,59.2,53.6,30.00,SSE,158,0.0,0.0,82,0.00,,,0.00,meteohub,2013-07-02 06:43:00,
2013-07-02 01:48:00,59.2,53.6,30.00,SSE,158,0.0,0.0,82,0.00,,,0.00,meteohub,2013-07-02 06:48:00,
2013-07-02 01:53:00,59.2,53.6,29.99,SSE,158,0.0,0.0,82,0.00,,,0.00,meteohub,2013-07-02 06:53:00,
2013-07-02 01:58:00,58.8,53.4,29.99,SSE,158,0.0,0.0,82,0.00,,,0.00,meteohub,2013-07-02 06:58:00,
2013-07-02 02:03:00,58.6,53.2,29.99,SSE,158,0.0,0.0,82,0.00,,,0.00,meteohub,2013-07-02 07:03:00,
2013-07-02 02:08:00,58.8,53.4,29.99,SSE,158,0.0,0.0,82,0.00,,,0.00,meteohub,2013-07-02 07:08:00,
2013-07-02 02:13:00,58.6,53.4,29.99,SSE,158,0.0,0.0,83,0.00,,,0.00,meteohub,2013-07-02 07:13:00,
2013-07-02 02:18:00,58.5,53.2,29.99,SSE,158,0.0,0.0,83,0.00,,,0.00,meteohub,2013-07-02 07:18:00,
2013-07-02 02:23:00,58.5,53.2,29.99,SSE,158,0.0,0.0,83,0.00,,,0.00,meteohub,2013-07-02 07:23:00,
2013-07-02 02:28:00,58.5,53.2,29.99,SSE,158,0.0,0.0,83,0.00,,,0.00,meteohub,2013-07-02 07:28:00,
2013-07-02 02:33:00,58.5,53.2,29.99,SSE,158,0.0,0.0,83,0.00,,,0.00,meteohub,2013-07-02 07:33:00,
2013-07-02 02:38:00,58.1,52.9,29.99,SSE,158,0.0,0.0,83,0.00,,,0.00,meteohub,2013-07-02 07:38:00,
2013-07-02 02:43:00,58.1,52.9,29.99,SSE,158,0.0,0.0,83,0.00,,,0.00,meteohub,2013-07-02 07:43:00,
2013-07-02 02:48:00,57.9,52.7,29.99,SSE,158,0.0,0.0,83,0.00,,,0.00,meteohub,2013-07-02 07:48:00,
2013-07-02 02:53:00,58.1,52.9,29.99,SSE,158,0.0,0.0,83,0.00,,,0.00,meteohub,2013-07-02 07:53:00,
2013-07-02 02:58:00,57.9,52.7,29.99,SSE,158,0.0,0.0,83,0.00,,,0.00,meteohub,2013-07-02 07:58:00,
2013-07-02 03:03:00,57.7,52.7,29.99,SSE,158,0.0,0.0,83,0.00,,,0.00,meteohub,2013-07-02 08:03:00,
2013-07-02 03:08:00,57.7,52.7,29.99,SSE,158,0.0,0.0,83,0.00,,,0.00,meteohub,2013-07-02 08:08:00,
2013-07-02 03:13:00,57.4,52.5,29.99,SSE,158,0.0,0.0,84,0.00,,,0.00,meteohub,2013-07-02 08:13:00,
2013-07-02 03:18:00,57.4,52.5,29.98,SSE,158,0.0,0.0,84,0.00,,,0.00,meteohub,2013-07-02 08:18:00,
2013-07-02 03:23:00,57.2,52.3,29.98,SSE,158,0.0,0.0,84,0.00,,,0.00,meteohub,2013-07-02 08:23:00,
2013-07-02 03:28:00,57.2,52.3,29.98,SSE,158,0.0,0.0,84,0.00,,,0.00,meteohub,2013-07-02 08:28:00,
2013-07-02 03:33:00,57.2,52.3,29.99,SSE,158,0.0,0.0,84,0.00,,,0.00,meteohub,2013-07-02 08:33:00,
2013-07-02 03:38:00,57.2,52.3,29.99,SSE,158,0.0,0.0,84,0.00,,,0.00,meteohub,2013-07-02 08:38:00,
2013-07-02 03:43:00,57.0,52.2,29.99,SSE,158,0.0,0.0,84,0.00,,,0.00,meteohub,2013-07-02 08:43:00,
2013-07-02 03:48:00,57.0,52.2,29.99,SSE,158,0.0,0.0,84,0.00,,,0.00,meteohub,2013-07-02 08:48:00,
2013-07-02 03:53:00,56.8,52.0,29.99,SSE,158,0.0,0.0,84,0.00,,,0.00,meteohub,2013-07-02 08:53:00,
2013-07-02 03:58:00,56.7,52.2,29.99,SSE,158,0.0,0.0,85,0.00,,,0.00,meteohub,2013-07-02 08:58:00,
2013-07-02 04:03:00,56.7,52.2,29.99,SSE,158,0.0,0.0,85,0.00,,,0.00,meteohub,2013-07-02 09:03:00,
2013-07-02 04:07:00,56.5,52.0,29.99,SSE,158,0.0,0.0,85,0.00,,,0.00,meteohub,2013-07-02 09:07:00,
2013-07-02 04:12:00,56.7,52.2,29.99,SSE,158,0.0,0.0,85,0.00,,,0.00,meteohub,2013-07-02 09:12:00,
2013-07-02 04:17:00,56.5,52.0,29.99,SSE,158,0.0,0.0,85,0.00,,,0.00,meteohub,2013-07-02 09:17:00,
2013-07-02 04:22:00,56.3,51.8,29.99,SSE,158,0.0,0.0,85,0.00,,,0.00,meteohub,2013-07-02 09:22:00,
2013-07-02 04:27:00,56.3,51.8,29.99,SSE,158,0.0,0.0,85,0.00,,,0.00,meteohub,2013-07-02 09:27:00,
2013-07-02 04:32:00,56.3,51.8,30.00,SSE,158,0.0,0.0,85,0.00,,,0.00,meteohub,2013-07-02 09:32:00,
2013-07-02 04:37:00,56.3,52.2,30.00,SSE,158,0.0,0.0,86,0.00,,,0.00,meteohub,2013-07-02 09:37:00,
2013-07-02 04:42:00,56.1,52.0,30.00,SSE,158,0.0,0.0,86,0.00,,,0.00,meteohub,2013-07-02 09:42:00,
2013-07-02 04:47:00,56.3,52.2,30.00,SSE,158,0.0,0.0,86,0.00,,,0.00,meteohub,2013-07-02 09:47:00,
2013-07-02 04:53:00,56.3,52.2,30.00,SSE,158,0.0,0.0,86,0.00,,,0.00,meteohub,2013-07-02 09:53:00,
2013-07-02 04:58:00,56.1,52.0,30.01,SSE,158,0.0,0.0,86,0.00,,,0.00,meteohub,2013-07-02 09:58:00,
2013-07-02 05:03:00,55.9,51.4,30.01,SSE,158,0.0,0.0,85,0.00,,,0.00,meteohub,2013-07-02 10:03:00,
2013-07-02 05:08:00,55.9,51.8,30.01,SSE,158,0.0,0.0,86,0.00,,,0.00,meteohub,2013-07-02 10:08:00,
2013-07-02 05:13:00,55.9,51.8,30.01,SSE,158,0.0,0.0,86,0.00,,,0.00,meteohub,2013-07-02 10:13:00,
2013-07-02 05:18:00,55.8,51.6,30.01,SSE,158,0.0,0.0,86,0.00,,,0.00,meteohub,2013-07-02 10:18:00,
2013-07-02 05:23:00,55.8,51.6,30.01,SSE,158,0.0,0.0,86,0.00,,,0.00,meteohub,2013-07-02 10:23:00,
2013-07-02 05:28:00,55.9,51.8,30.01,SSE,158,0.0,0.0,86,0.00,,,0.00,meteohub,2013-07-02 10:28:00,
2013-07-02 05:33:00,55.8,51.6,30.01,SSE,158,0.0,0.0,86,0.00,,,0.00,meteohub,2013-07-02 10:33:00,
2013-07-02 05:38:00,55.8,51.6,30.01,SSE,158,0.0,0.0,86,0.00,,,0.00,meteohub,2013-07-02 10:38:00,
2013-07-02 05:43:00,55.8,51.6,30.01,SSE,158,0.0,0.0,86,0.00,,,0.00,meteohub,2013-07-02 10:43:00,
2013-07-02 05:48:00,55.6,51.4,30.01,SSE,158,0.0,0.0,86,0.00,,,0.00,meteohub,2013-07-02 10:48:00,
2013-07-02 05:53:00,55.6,51.4,30.02,SSE,158,0.0,0.0,86,0.00,,,0.00,meteohub,2013-07-02 10:53:00,
2013-07-02 05:58:00,55.4,51.3,30.02,SSE,158,0.0,0.0,86,0.00,,,0.00,meteohub,2013-07-02 10:58:00,
2013-07-02 06:03:00,55.6,51.4,30.02,SSE,158,0.0,0.0,86,0.00,,,0.00,meteohub,2013-07-02 11:03:00,
2013-07-02 06:08:00,55.2,51.1,30.02,SSE,158,0.0,0.0,86,0.00,,,0.00,meteohub,2013-07-02 11:08:00,
2013-07-02 06:13:00,55.2,51.4,30.03,SSE,158,0.0,0.0,87,0.00,,,0.00,meteohub,2013-07-02 11:13:00,
2013-07-02 06:18:00,55.2,51.4,30.03,SSE,158,0.0,0.0,87,0.00,,,0.00,meteohub,2013-07-02 11:18:00,
2013-07-02 06:23:00,55.2,51.4,30.03,SSE,158,0.0,0.0,87,0.00,,,0.00,meteohub,2013-07-02 11:23:00,
2013-07-02 06:28:00,55.4,51.6,30.03,SSE,158,0.0,0.0,87,0.00,,,0.00,meteohub,2013-07-02 11:28:00,
2013-07-02 06:33:00,55.4,51.6,30.02,SSE,158,0.0,0.0,87,0.00,,,0.00,meteohub,2013-07-02 11:33:00,
2013-07-02 06:38:00,55.4,51.6,30.02,SSE,158,0.0,0.0,87,0.00,,,0.00,meteohub,2013-07-02 11:38:00,
2013-07-02 06:43:00,55.6,51.8,30.02,SSE,158,0.0,0.0,87,0.00,,,0.00,meteohub,2013-07-02 11:43:00,
2013-07-02 06:48:00,55.6,51.8,30.02,SSE,158,0.0,0.0,87,0.00,,,0.00,meteohub,2013-07-02 11:48:00,
2013-07-02 06:53:00,55.8,52.0,30.03,SSE,158,0.0,0.0,87,0.00,,,0.00,meteohub,2013-07-02 11:53:00,
2013-07-02 06:58:00,55.8,52.0,30.03,SSE,158,0.0,0.0,87,0.00,,,0.00,meteohub,2013-07-02 11:58:00,
2013-07-02 07:03:00,55.9,52.2,30.03,SSE,158,0.0,0.0,87,0.00,,,0.00,meteohub,2013-07-02 12:03:00,
2013-07-02 07:08:00,55.9,52.2,30.03,SSE,158,0.0,0.0,87,0.00,,,0.00,meteohub,2013-07-02 12:08:00,
2013-07-02 07:13:00,56.1,52.7,30.03,SSE,158,0.0,0.0,88,0.00,,,0.00,meteohub,2013-07-02 12:13:00,
2013-07-02 07:18:00,56.3,52.9,30.03,SSE,158,0.0,0.0,88,0.00,,,0.00,meteohub,2013-07-02 12:18:00,
2013-07-02 07:23:00,56.3,52.9,30.03,SSW,203,0.0,0.0,88,0.00,,,0.00,meteohub,2013-07-02 12:23:00,
2013-07-02 07:28:00,56.5,52.9,30.03,SSW,203,0.0,0.0,88,0.00,,,0.00,meteohub,2013-07-02 12:28:00,
2013-07-02 07:33:00,56.7,53.1,30.03,SW,225,0.0,0.0,88,0.00,,,0.00,meteohub,2013-07-02 12:33:00,
2013-07-02 07:38:00,57.0,53.8,30.02,SW,225,0.0,0.0,89,0.00,,,0.00,meteohub,2013-07-02 12:38:00,
2013-07-02 07:43:00,57.4,54.1,30.02,WSW,248,0.0,0.0,89,0.00,,,0.00,meteohub,2013-07-02 12:43:00,
2013-07-02 07:48:00,57.6,54.3,30.02,WSW,248,0.0,0.0,89,0.00,,,0.00,meteohub,2013-07-02 12:48:00,
2013-07-02 07:53:00,57.9,54.7,30.04,WSW,248,0.0,0.0,89,0.00,,,0.00,meteohub,2013-07-02 12:53:00,
2013-07-02 07:58:00,57.9,54.3,30.04,WNW,293,0.0,0.0,88,0.00,,,0.00,meteohub,2013-07-02 12:58:00,
2013-07-02 08:03:00,58.6,55.0,30.04,West,270,0.0,0.0,88,0.00,,,0.00,meteohub,2013-07-02 13:03:00,
2013-07-02 08:08:00,59.0,55.4,30.04,WNW,293,0.0,0.0,88,0.00,,,0.00,meteohub,2013-07-02 13:08:00,
2013-07-02 08:13:00,59.2,55.6,30.03,NW,315,0.0,0.0,88,0.00,,,0.00,meteohub,2013-07-02 13:13:00,
2013-07-02 08:18:00,59.5,55.6,30.03,West,270,0.0,0.0,87,0.00,,,0.00,meteohub,2013-07-02 13:18:00,
2013-07-02 08:23:00,59.9,55.9,30.03,South,180,0.0,0.0,87,0.00,,,0.00,meteohub,2013-07-02 13:23:00,
2013-07-02 08:28:00,60.3,56.3,30.03,West,270,0.0,0.0,87,0.00,,,0.00,meteohub,2013-07-02 13:28:00,
2013-07-02 08:33:00,60.6,56.7,30.03,South,180,0.0,0.0,87,0.00,,,0.00,meteohub,2013-07-02 13:33:00,
2013-07-02 08:38:00,61.0,56.8,30.03,WSW,248,0.0,0.0,86,0.00,,,0.00,meteohub,2013-07-02 13:38:00,
2013-07-02 08:43:00,61.3,57.2,30.03,South,180,0.0,0.0,86,0.00,,,0.00,meteohub,2013-07-02 13:43:00,
2013-07-02 08:48:00,61.9,57.4,30.03,SW,225,0.0,0.0,85,0.00,,,0.00,meteohub,2013-07-02 13:48:00,
2013-07-02 08:53:00,62.1,57.6,30.04,WNW,293,0.0,0.0,85,0.00,,,0.00,meteohub,2013-07-02 13:53:00,
2013-07-02 08:58:00,62.8,57.9,30.04,WNW,293,0.0,0.0,84,0.00,,,0.00,meteohub,2013-07-02 13:58:00,
2013-07-02 09:03:00,63.0,58.1,30.04,SSW,203,0.0,0.0,84,0.00,,,0.00,meteohub,2013-07-02 14:03:00,
2013-07-02 09:08:00,63.0,57.7,30.04,SW,225,0.0,0.0,83,0.00,,,0.00,meteohub,2013-07-02 14:08:00,
2013-07-02 09:13:00,63.5,58.3,30.04,South,180,0.0,0.0,83,0.00,,,0.00,meteohub,2013-07-02 14:13:00,
2013-07-02 09:18:00,63.5,58.3,30.04,SW,225,0.0,0.0,83,0.00,,,0.00,meteohub,2013-07-02 14:18:00,
2013-07-02 09:23:00,63.9,58.3,30.04,WSW,248,0.0,0.0,82,0.00,,,0.00,meteohub,2013-07-02 14:23:00,
2013-07-02 09:28:00,63.9,58.3,30.04,WSW,248,0.0,0.0,82,0.00,,,0.00,meteohub,2013-07-02 14:28:00,
2013-07-02 09:33:00,64.0,58.5,30.04,SSW,203,0.0,0.0,82,0.00,,,0.00,meteohub,2013-07-02 14:33:00,
2013-07-02 09:38:00,64.4,58.5,30.04,SW,225,0.0,0.0,81,0.00,,,0.00,meteohub,2013-07-02 14:38:00,
2013-07-02 09:43:00,64.8,58.8,30.04,WSW,248,0.0,0.0,81,0.00,,,0.00,meteohub,2013-07-02 14:43:00,
2013-07-02 09:48:00,64.9,59.0,30.03,WNW,293,0.0,0.0,81,0.00,,,0.00,meteohub,2013-07-02 14:48:00,
2013-07-02 09:53:00,65.1,58.8,30.03,WNW,293,0.0,0.0,80,0.00,,,0.00,meteohub,2013-07-02 14:53:00,
2013-07-02 09:58:00,65.5,59.2,30.03,WSW,248,0.0,0.0,80,0.00,,,0.00,meteohub,2013-07-02 14:58:00,
2013-07-02 10:04:00,65.8,59.5,30.03,SW,225,0.0,0.0,80,0.00,,,0.00,meteohub,2013-07-02 15:04:00,
2013-07-02 10:09:00,66.2,59.9,30.03,WSW,248,0.0,0.0,80,0.00,,,0.00,meteohub,2013-07-02 15:09:00,
2013-07-02 10:14:00,66.6,59.9,30.02,South,180,0.0,0.0,79,0.00,,,0.00,meteohub,2013-07-02 15:14:00,
2013-07-02 10:19:00,66.7,59.7,30.02,WSW,248,0.0,0.0,78,0.00,,,0.00,meteohub,2013-07-02 15:19:00,
2013-07-02 10:24:00,67.1,60.1,30.02,WNW,293,0.0,0.0,78,0.00,,,0.00,meteohub,2013-07-02 15:24:00,
2013-07-02 10:29:00,67.1,59.7,30.02,South,180,0.0,0.0,77,0.00,,,0.00,meteohub,2013-07-02 15:29:00,
2013-07-02 10:34:00,67.5,60.1,30.02,South,180,0.0,0.0,77,0.00,,,0.00,meteohub,2013-07-02 15:34:00,
2013-07-02 10:39:00,67.8,59.9,30.02,SSE,158,0.0,0.0,76,0.00,,,0.00,meteohub,2013-07-02 15:39:00,
2013-07-02 10:44:00,68.2,60.3,30.02,South,180,0.0,0.0,76,0.00,,,0.00,meteohub,2013-07-02 15:44:00,
2013-07-02 10:49:00,68.2,59.9,30.02,SSW,203,0.0,0.0,75,0.00,,,0.00,meteohub,2013-07-02 15:49:00,
2013-07-02 10:54:00,68.4,60.1,30.02,SSW,203,0.0,0.0,75,0.00,,,0.00,meteohub,2013-07-02 15:54:00,
2013-07-02 10:59:00,68.7,60.1,30.02,South,180,0.0,0.0,74,0.00,,,0.00,meteohub,2013-07-02 15:59:00,
2013-07-02 11:04:00,68.9,60.3,30.02,NW,315,0.0,0.0,74,0.00,,,0.00,meteohub,2013-07-02 16:04:00,
2013-07-02 11:09:00,69.3,60.3,30.02,NW,315,0.0,0.0,73,0.00,,,0.00,meteohub,2013-07-02 16:09:00,
2013-07-02 11:14:00,69.4,60.4,30.02,ENE,68,0.0,0.0,73,0.00,,,0.00,meteohub,2013-07-02 16:14:00,
2013-07-02 11:19:00,70.0,60.6,30.02,ESE,113,1.0,0.0,72,0.00,,,0.00,meteohub,2013-07-02 16:19:00,
2013-07-02 11:24:00,70.2,60.3,30.02,West,270,0.0,0.0,71,0.00,,,0.00,meteohub,2013-07-02 16:24:00,
2013-07-02 11:29:00,70.5,60.6,30.02,SW,225,0.0,1.0,71,0.00,,,0.00,meteohub,2013-07-02 16:29:00,
2013-07-02 11:34:00,70.7,60.1,30.01,South,180,0.0,1.0,69,0.00,,,0.00,meteohub,2013-07-02 16:34:00,
2013-07-02 11:39:00,70.7,59.5,30.01,South,180,0.0,0.0,68,0.00,,,0.00,meteohub,2013-07-02 16:39:00,
2013-07-02 11:44:00,70.9,59.0,30.01,SE,135,0.0,1.0,66,0.00,,,0.00,meteohub,2013-07-02 16:44:00,
2013-07-02 11:49:00,71.4,59.5,30.01,SSE,158,0.0,1.0,66,0.00,,,0.00,meteohub,2013-07-02 16:49:00,
2013-07-02 11:54:00,71.4,59.5,30.01,SSE,158,0.0,1.0,66,0.00,,,0.00,meteohub,2013-07-02 16:54:00,
2013-07-02 11:59:00,71.6,59.7,30.01,NNW,338,0.0,0.0,66,0.00,,,0.00,meteohub,2013-07-02 16:59:00,
2013-07-02 12:04:00,71.6,59.7,30.01,SSE,158,0.0,0.0,66,0.00,,,0.00,meteohub,2013-07-02 17:04:00,
2013-07-02 12:09:00,71.6,59.7,30.01,SE,135,0.0,0.0,66,0.00,,,0.00,meteohub,2013-07-02 17:09:00,
2013-07-02 12:14:00,71.6,59.7,30.00,ESE,113,2.0,0.0,66,0.00,,,0.00,meteohub,2013-07-02 17:14:00,
2013-07-02 12:19:00,72.3,59.5,29.99,SSE,158,0.0,0.0,64,0.00,,,0.00,meteohub,2013-07-02 17:19:00,
2013-07-02 12:24:00,72.5,59.5,29.99,ENE,68,0.0,2.0,64,0.00,,,0.00,meteohub,2013-07-02 17:24:00,
2013-07-02 12:29:00,72.9,59.5,29.99,ESE,113,0.0,2.0,63,0.00,,,0.00,meteohub,2013-07-02 17:29:00,
2013-07-02 12:34:00,73.0,60.1,30.01,WNW,293,0.0,0.0,64,0.00,,,0.00,meteohub,2013-07-02 17:34:00,
2013-07-02 12:39:00,73.4,59.5,30.01,WSW,248,0.0,0.0,62,0.00,,,0.00,meteohub,2013-07-02 17:39:00,
2013-07-02 12:44:00,73.6,59.7,30.01,NNW,338,0.0,2.0,62,0.00,,,0.00,meteohub,2013-07-02 17:44:00,
2013-07-02 12:49:00,73.6,59.4,30.01,West,270,0.0,2.0,61,0.00,,,0.00,meteohub,2013-07-02 17:49:00,
2013-07-02 12:54:00,73.6,59.4,30.01,SE,135,0.0,2.0,61,0.00,,,0.00,meteohub,2013-07-02 17:54:00,
2013-07-02 12:59:00,73.9,59.7,30.00,South,180,0.0,2.0,61,0.00,,,0.00,meteohub,2013-07-02 17:59:00,
2013-07-02 13:04:00,74.3,59.9,30.00,WSW,248,0.0,3.0,61,0.00,,,0.00,meteohub,2013-07-02 18:04:00,
2013-07-02 13:09:00,74.7,59.4,30.00,East,90,4.0,4.0,59,0.00,,,0.00,meteohub,2013-07-02 18:09:00,
2013-07-02 13:14:00,75.0,59.7,29.99,SE,135,0.0,3.0,59,0.00,,,0.00,meteohub,2013-07-02 18:14:00,
2013-07-02 13:19:00,75.4,60.4,29.99,SSE,158,0.0,4.0,60,0.00,,,0.00,meteohub,2013-07-02 18:19:00,
2013-07-02 13:24:00,75.0,60.3,29.99,West,270,0.0,4.0,60,0.00,,,0.00,meteohub,2013-07-02 18:24:00,
2013-07-02 13:29:00,75.2,60.4,29.99,SE,135,0.0,2.0,60,0.00,,,0.00,meteohub,2013-07-02 18:29:00,
2013-07-02 13:34:00,75.2,59.9,29.99,South,180,0.0,0.0,59,0.00,,,0.00,meteohub,2013-07-02 18:34:00,
2013-07-02 13:39:00,75.2,60.4,29.99,NW,315,0.0,0.0,60,0.00,,,0.00,meteohub,2013-07-02 18:39:00,
2013-07-02 13:44:00,75.4,60.4,29.99,NW,315,0.0,0.0,60,0.00,,,0.00,meteohub,2013-07-02 18:44:00,
2013-07-02 13:49:00,75.7,60.4,29.99,ENE,68,0.0,2.0,59,0.00,,,0.00,meteohub,2013-07-02 18:49:00,
2013-07-02 13:54:00,75.7,59.9,29.99,ENE,68,2.0,2.0,58,0.00,,,0.00,meteohub,2013-07-02 18:54:00,
2013-07-02 13:59:00,76.1,59.2,29.99,ESE,113,0.0,2.0,56,0.00,,,0.00,meteohub,2013-07-02 18:59:00,
2013-07-02 14:04:00,76.5,60.6,29.99,NNW,338,0.0,2.0,58,0.00,,,0.00,meteohub,2013-07-02 19:04:00,
2013-07-02 14:09:00,76.6,61.2,29.99,SE,135,0.0,2.0,59,0.00,,,0.00,meteohub,2013-07-02 19:09:00,
2013-07-02 14:14:00,76.6,60.8,29.99,ENE,68,0.0,2.0,58,0.00,,,0.00,meteohub,2013-07-02 19:14:00,
2013-07-02 14:19:00,76.6,60.8,29.99,SE,135,0.0,2.0,58,0.00,,,0.00,meteohub,2013-07-02 19:19:00,
2013-07-02 14:24:00,76.8,60.4,29.99,ESE,113,0.0,2.0,57,0.00,,,0.00,meteohub,2013-07-02 19:24:00,
2013-07-02 14:29:00,77.2,61.3,29.99,SW,225,0.0,2.0,58,0.00,,,0.00,meteohub,2013-07-02 19:29:00,
2013-07-02 14:34:00,77.0,60.6,29.97,SW,225,0.0,0.0,57,0.00,,,0.00,meteohub,2013-07-02 19:34:00,
2013-07-02 14:39:00,77.4,61.3,29.97,ESE,113,0.0,0.0,58,0.00,,,0.00,meteohub,2013-07-02 19:39:00,
2013-07-02 14:44:00,77.5,61.5,29.97,WSW,248,0.0,0.0,58,0.00,,,0.00,meteohub,2013-07-02 19:44:00,
2013-07-02 14:49:00,77.5,61.2,29.97,SE,135,0.0,0.0,57,0.00,,,0.00,meteohub,2013-07-02 19:49:00,
2013-07-02 14:54:00,77.9,59.4,29.97,ESE,113,5.0,0.0,53,0.00,,,0.00,meteohub,2013-07-02 19:54:00,
2013-07-02 14:59:00,77.5,59.0,29.98,ENE,68,2.0,3.0,53,0.00,,,0.00,meteohub,2013-07-02 19:59:00,
2013-07-02 15:04:00,77.4,59.4,29.98,SE,135,0.0,5.0,54,0.00,,,0.00,meteohub,2013-07-02 20:04:00,
2013-07-02 15:10:00,77.5,59.5,29.98,East,90,2.0,5.0,54,0.00,,,0.00,meteohub,2013-07-02 20:10:00,
2013-07-02 15:15:00,77.7,59.7,29.98,ESE,113,2.0,5.0,54,0.00,,,0.00,meteohub,2013-07-02 20:15:00,
2013-07-02 15:20:00,78.1,61.2,29.97,WSW,248,0.0,3.0,56,0.00,,,0.00,meteohub,2013-07-02 20:20:00,
2013-07-02 15:25:00,78.6,61.2,29.97,SSE,158,0.0,3.0,55,0.00,,,0.00,meteohub,2013-07-02 20:25:00,
2013-07-02 15:30:00,78.6,61.2,29.97,NW,315,0.0,2.0,55,0.00,,,0.00,meteohub,2013-07-02 20:30:00,
2013-07-02 15:35:00,78.8,60.8,29.97,SE,135,0.0,2.0,54,0.00,,,0.00,meteohub,2013-07-02 20:35:00,
2013-07-02 15:40:00,78.8,59.7,29.97,SSE,158,1.0,2.0,52,0.00,,,0.00,meteohub,2013-07-02 20:40:00,
2013-07-02 15:45:00,78.6,60.6,29.97,West,270,0.0,2.0,54,0.00,,,0.00,meteohub,2013-07-02 20:45:00,
2013-07-02 15:50:00,78.4,60.4,29.97,ESE,113,5.0,5.0,54,0.00,,,0.00,meteohub,2013-07-02 20:50:00,
2013-07-02 15:55:00,78.8,59.7,29.97,ESE,113,0.0,5.0,52,0.00,,,0.00,meteohub,2013-07-02 20:55:00,
2013-07-02 16:00:00,79.0,60.4,29.97,SE,135,0.0,5.0,53,0.00,,,0.00,meteohub,2013-07-02 21:00:00,
2013-07-02 16:05:00,79.0,60.4,29.97,WSW,248,0.0,5.0,53,0.00,,,0.00,meteohub,2013-07-02 21:05:00,
2013-07-02 16:10:00,79.3,61.2,29.97,ENE,68,0.0,0.0,54,0.00,,,0.00,meteohub,2013-07-02 21:10:00,
2013-07-02 16:15:00,78.8,59.7,29.98,East,90,0.0,2.0,52,0.00,,,0.00,meteohub,2013-07-02 21:15:00,
2013-07-02 16:20:00,78.8,59.7,29.98,SSE,158,0.0,2.0,52,0.00,,,0.00,meteohub,2013-07-02 21:20:00,
2013-07-02 16:25:00,79.0,59.4,29.98,NW,315,1.0,2.0,51,0.00,,,0.00,meteohub,2013-07-02 21:25:00,
2013-07-02 16:30:00,79.0,59.9,29.98,ENE,68,0.0,1.0,52,0.00,,,0.00,meteohub,2013-07-02 21:30:00,
2013-07-02 16:35:00,79.3,60.8,29.97,SW,225,0.0,1.0,53,0.00,,,0.00,meteohub,2013-07-02 21:35:00,
2013-07-02 16:40:00,79.5,60.8,29.97,NW,315,0.0,1.0,53,0.00,,,0.00,meteohub,2013-07-02 21:40:00,
2013-07-02 16:45:00,80.2,61.5,29.96,SE,135,0.0,0.0,53,0.00,,,0.00,meteohub,2013-07-02 21:45:00,
2013-07-02 16:50:00,80.1,59.7,29.97,ESE,113,0.0,0.0,50,0.00,,,0.00,meteohub,2013-07-02 21:50:00,
2013-07-02 16:55:00,79.9,60.1,29.97,ESE,113,0.0,2.0,51,0.00,,,0.00,meteohub,2013-07-02 21:55:00,
2013-07-02 17:00:00,80.1,60.3,29.97,SSE,158,0.0,2.0,51,0.00,,,0.00,meteohub,2013-07-02 22:00:00,
2013-07-02 17:05:00,80.1,60.3,29.97,East,90,2.0,0.0,51,0.00,,,0.00,meteohub,2013-07-02 22:05:00,
2013-07-02 17:10:00,79.9,59.5,29.97,East,90,0.0,3.0,50,0.00,,,0.00,meteohub,2013-07-02 22:10:00,
2013-07-02 17:15:00,79.9,59.5,29.97,ESE,113,0.0,3.0,50,0.00,,,0.00,meteohub,2013-07-02 22:15:00,
2013-07-02 17:20:00,79.7,59.4,29.97,ESE,113,3.0,3.0,50,0.00,,,0.00,meteohub,2013-07-02 22:20:00,
2013-07-02 17:25:00,79.5,58.1,29.97,ENE,68,2.0,3.0,48,0.00,,,0.00,meteohub,2013-07-02 22:25:00,
2013-07-02 17:30:00,79.5,58.1,29.97,East,90,2.0,3.0,48,0.00,,,0.00,meteohub,2013-07-02 22:30:00,
2013-07-02 17:35:00,79.5,59.2,29.96,WSW,248,0.0,2.0,50,0.00,,,0.00,meteohub,2013-07-02 22:35:00,
2013-07-02 17:40:00,79.7,59.4,29.96,SSE,158,0.0,2.0,50,0.00,,,0.00,meteohub,2013-07-02 22:40:00,
2013-07-02 17:45:00,79.5,59.7,29.96,SSE,158,0.0,2.0,51,0.00,,,0.00,meteohub,2013-07-02 22:45:00,
2013-07-02 17:50:00,79.5,59.7,29.96,SE,135,0.0,0.0,51,0.00,,,0.00,meteohub,2013-07-02 22:50:00,
2013-07-02 17:55:00,79.5,59.2,30.00,NE,45,0.0,0.0,50,0.00,,,0.00,meteohub,2013-07-02 22:55:00,
2013-07-02 18:00:00,79.5,59.7,30.00,SSE,158,0.0,2.0,51,0.00,,,0.00,meteohub,2013-07-02 23:00:00,
2013-07-02 18:05:00,79.7,59.4,30.00,ENE,68,0.0,2.0,50,0.00,,,0.00,meteohub,2013-07-02 23:05:00,
2013-07-02 18:10:00,79.5,59.2,30.00,SSE,158,0.0,0.0,50,0.00,,,0.00,meteohub,2013-07-02 23:10:00,
2013-07-02 18:15:00,79.7,59.4,30.00,SSW,203,0.0,0.0,50,0.00,,,0.00,meteohub,2013-07-02 23:15:00,
2013-07-02 18:20:00,80.1,59.7,30.00,SSW,203,0.0,0.0,50,0.00,,,0.00,meteohub,2013-07-02 23:20:00,
2013-07-02 18:25:00,79.9,59.5,30.00,SSE,158,0.0,0.0,50,0.00,,,0.00,meteohub,2013-07-02 23:25:00,
2013-07-02 18:29:00,80.1,59.7,30.00,East,90,0.0,0.0,50,0.00,,,0.00,meteohub,2013-07-02 23:29:00,
2013-07-02 18:34:00,79.9,59.0,29.97,ENE,68,2.0,0.0,49,0.00,,,0.00,meteohub,2013-07-02 23:34:00,
2013-07-02 18:39:00,79.7,58.3,29.97,East,90,0.0,0.0,48,0.00,,,0.00,meteohub,2013-07-02 23:39:00,
2013-07-02 18:44:00,79.5,58.1,29.97,ENE,68,0.0,2.0,48,0.00,,,0.00,meteohub,2013-07-02 23:44:00,
2013-07-02 18:49:00,79.0,58.8,29.98,ESE,113,0.0,2.0,50,0.00,,,0.00,meteohub,2013-07-02 23:49:00,
2013-07-02 18:54:00,78.6,59.0,29.97,SE,135,0.0,0.0,51,0.00,,,0.00,meteohub,2013-07-02 23:54:00,
2013-07-02 18:55:00,78.6,59.0,29.97,SE,135,0.0,0.0,51,0.00,,,0.00,meteohub,2013-07-02 23:55:00,
2013-07-02 19:00:00,78.1,58.5,29.97,SE,135,0.0,0.0,51,0.00,,,0.00,meteohub,2013-07-03 00:00:00,
2013-07-02 19:01:00,78.3,58.6,29.97,SE,135,0.0,0.0,51,0.00,,,0.00,meteohub,2013-07-03 00:01:00,
2013-07-02 19:06:00,77.9,58.3,29.97,ESE,113,0.0,0.0,51,0.00,,,0.00,meteohub,2013-07-03 00:06:00,
2013-07-02 19:11:00,77.7,58.1,29.98,East,90,0.0,0.0,51,0.00,,,0.00,meteohub,2013-07-03 00:11:00,
2013-07-02 19:16:00,77.4,58.3,29.98,SE,135,0.0,0.0,52,0.00,,,0.00,meteohub,2013-07-03 00:16:00,
2013-07-02 19:21:00,77.0,58.1,29.98,ESE,113,0.0,0.0,52,0.00,,,0.00,meteohub,2013-07-03 00:21:00,
2013-07-02 19:23:00,77.2,58.6,29.98,ESE,113,0.0,0.0,53,0.00,,,0.00,meteohub,2013-07-03 00:23:00,
2013-07-02 19:24:00,77.2,58.6,29.98,ESE,113,0.0,0.0,53,0.00,,,0.00,meteohub,2013-07-03 00:24:00,
2013-07-02 19:28:00,76.6,58.8,29.99,ESE,113,0.0,0.0,54,0.00,,,0.00,meteohub,2013-07-03 00:28:00,
2013-07-02 19:33:00,76.5,59.2,30.02,ESE,113,0.0,0.0,55,0.00,,,0.00,meteohub,2013-07-03 00:33:00,
2013-07-02 19:38:00,76.5,59.5,30.02,ESE,113,0.0,0.0,56,0.00,,,0.00,meteohub,2013-07-03 00:38:00,
2013-07-02 19:43:00,76.1,59.2,30.02,ESE,113,0.0,0.0,56,0.00,,,0.00,meteohub,2013-07-03 00:43:00,
2013-07-02 19:48:00,76.1,59.2,30.02,ESE,113,0.0,0.0,56,0.00,,,0.00,meteohub,2013-07-03 00:48:00,
2013-07-02 19:53:00,76.1,59.7,30.03,SE,135,0.0,0.0,57,0.00,,,0.00,meteohub,2013-07-03 00:53:00,
2013-07-02 19:58:00,75.9,59.5,30.03,SSE,158,0.0,0.0,57,0.00,,,0.00,meteohub,2013-07-03 00:58:00,
2013-07-02 20:02:00,75.7,59.4,30.03,SE,135,0.0,0.0,57,0.00,,,0.00,meteohub,2013-07-03 01:02:00,
2013-07-02 20:03:00,75.7,59.9,30.03,SE,135,0.0,0.0,58,0.00,,,0.00,meteohub,2013-07-03 01:03:00,
2013-07-02 20:08:00,75.2,59.9,30.04,SE,135,0.0,0.0,59,0.00,,,0.00,meteohub,2013-07-03 01:08:00,
2013-07-02 20:09:00,75.2,59.9,30.04,SE,135,0.0,0.0,59,0.00,,,0.00,meteohub,2013-07-03 01:09:00,
2013-07-02 20:14:00,75.2,59.9,30.04,SE,135,0.0,0.0,59,0.00,,,0.00,meteohub,2013-07-03 01:14:00,
2013-07-02 20:19:00,74.7,58.8,30.04,ESE,113,0.0,0.0,58,0.00,,,0.00,meteohub,2013-07-03 01:19:00,
2013-07-02 20:24:00,74.3,59.5,30.05,SE,135,0.0,0.0,60,0.00,,,0.00,meteohub,2013-07-03 01:24:00,
2013-07-02 20:26:00,74.3,59.0,30.05,SE,135,0.0,0.0,59,0.00,,,0.00,meteohub,2013-07-03 01:26:00,
2013-07-02 20:31:00,73.9,58.6,30.05,SE,135,0.0,0.0,59,0.00,,,0.00,meteohub,2013-07-03 01:31:00,
2013-07-02 20:36:00,73.4,59.2,30.02,SE,135,0.0,0.0,61,0.00,,,0.00,meteohub,2013-07-03 01:36:00,
2013-07-02 20:41:00,72.9,59.0,30.02,SE,135,0.0,0.0,62,0.00,,,0.00,meteohub,2013-07-03 01:41:00,
2013-07-02 20:46:00,72.1,58.8,30.03,SE,135,0.0,0.0,63,0.00,,,0.00,meteohub,2013-07-03 01:46:00,
2013-07-02 20:49:00,71.8,58.5,30.03,SE,135,0.0,0.0,63,0.00,,,0.00,meteohub,2013-07-03 01:49:00,
2013-07-02 20:50:00,71.8,58.5,30.03,SE,135,0.0,0.0,63,0.00,,,0.00,meteohub,2013-07-03 01:50:00,
2013-07-02 20:56:00,71.1,58.3,30.00,SE,135,0.0,0.0,64,0.00,,,0.00,meteohub,2013-07-03 01:56:00,
2013-07-02 21:01:00,70.7,58.3,30.00,SE,135,0.0,0.0,65,0.00,,,0.00,meteohub,2013-07-03 02:01:00,
2013-07-02 21:06:00,69.8,57.9,30.01,SE,135,0.0,0.0,66,0.00,,,0.00,meteohub,2013-07-03 02:06:00,
2013-07-02 21:11:00,69.3,57.4,30.01,SE,135,0.0,0.0,66,0.00,,,0.00,meteohub,2013-07-03 02:11:00,
2013-07-02 21:16:00,68.7,57.4,30.01,SE,135,0.0,0.0,67,0.00,,,0.00,meteohub,2013-07-03 02:16:00,
2013-07-02 21:21:00,68.5,57.6,30.01,SE,135,0.0,0.0,68,0.00,,,0.00,meteohub,2013-07-03 02:21:00,
2013-07-02 21:26:00,68.2,57.6,30.01,SE,135,0.0,0.0,69,0.00,,,0.00,meteohub,2013-07-03 02:26:00,
2013-07-02 21:32:00,67.5,57.0,30.01,SE,135,0.0,0.0,69,0.00,,,0.00,meteohub,2013-07-03 02:32:00,
2013-07-02 21:34:00,67.5,57.0,30.02,SE,135,0.0,0.0,69,0.00,,,0.00,meteohub,2013-07-03 02:34:00,
2013-07-02 21:39:00,66.9,56.8,30.03,SE,135,0.0,0.0,70,0.00,,,0.00,meteohub,2013-07-03 02:39:00,
2013-07-02 21:44:00,66.6,56.8,30.03,SE,135,0.0,0.0,71,0.00,,,0.00,meteohub,2013-07-03 02:44:00,
2013-07-02 21:46:00,66.4,56.7,30.03,SE,135,0.0,0.0,71,0.00,,,0.00,meteohub,2013-07-03 02:46:00,
2013-07-02 21:51:00,66.0,56.7,30.03,SE,135,0.0,0.0,72,0.00,,,0.00,meteohub,2013-07-03 02:51:00,
2013-07-02 21:57:00,65.8,56.5,30.03,SE,135,0.0,0.0,72,0.00,,,0.00,meteohub,2013-07-03 02:57:00,
2013-07-02 22:02:00,65.7,56.8,30.03,SE,135,0.0,0.0,73,0.00,,,0.00,meteohub,2013-07-03 03:02:00,
2013-07-02 22:07:00,65.3,56.8,30.03,SE,135,0.0,0.0,74,0.00,,,0.00,meteohub,2013-07-03 03:07:00,
2013-07-02 22:12:00,64.9,56.5,30.03,SE,135,0.0,0.0,74,0.00,,,0.00,meteohub,2013-07-03 03:12:00,
2013-07-02 22:17:00,64.6,56.1,30.03,SE,135,0.0,0.0,74,0.00,,,0.00,meteohub,2013-07-03 03:17:00,
2013-07-02 22:21:00,64.4,56.3,30.03,SE,135,0.0,0.0,75,0.00,,,0.00,meteohub,2013-07-03 03:21:00,
2013-07-02 22:26:00,64.2,56.1,30.03,SE,135,0.0,0.0,75,0.00,,,0.00,meteohub,2013-07-03 03:26:00,
2013-07-02 22:32:00,63.9,56.1,30.03,SE,135,0.0,0.0,76,0.00,,,0.00,meteohub,2013-07-03 03:32:00,
2013-07-02 22:35:00,63.7,55.9,30.04,SE,135,0.0,0.0,76,0.00,,,0.00,meteohub,2013-07-03 03:35:00,
2013-07-02 22:39:00,63.7,55.9,30.04,SE,135,0.0,0.0,76,0.00,,,0.00,meteohub,2013-07-03 03:39:00,
2013-07-02 22:44:00,63.5,56.1,30.04,SE,135,0.0,0.0,77,0.00,,,0.00,meteohub,2013-07-03 03:44:00,
2013-07-02 22:49:00,63.5,56.1,30.04,SE,135,0.0,0.0,77,0.00,,,0.00,meteohub,2013-07-03 03:49:00,
2013-07-02 22:54:00,63.1,56.1,30.04,SE,135,0.0,0.0,78,0.00,,,0.00,meteohub,2013-07-03 03:54:00,
2013-07-02 23:00:00,63.0,55.9,30.04,SE,135,0.0,0.0,78,0.00,,,0.00,meteohub,2013-07-03 04:00:00,
2013-07-02 23:01:00,63.1,56.1,30.04,SE,135,0.0,0.0,78,0.00,,,0.00,meteohub,2013-07-03 04:01:00,
2013-07-02 23:03:00,63.0,55.9,30.04,SE,135,0.0,0.0,78,0.00,,,0.00,meteohub,2013-07-03 04:03:00,
2013-07-02 23:04:00,63.0,55.9,30.04,SE,135,0.0,0.0,78,0.00,,,0.00,meteohub,2013-07-03 04:04:00,
2013-07-02 23:09:00,62.6,55.6,30.04,SE,135,0.0,0.0,78,0.00,,,0.00,meteohub,2013-07-03 04:09:00,
2013-07-02 23:14:00,62.6,55.6,30.04,SE,135,0.0,0.0,78,0.00,,,0.00,meteohub,2013-07-03 04:14:00,
2013-07-02 23:19:00,62.2,55.6,30.04,SE,135,0.0,0.0,79,0.00,,,0.00,meteohub,2013-07-03 04:19:00,
2013-07-02 23:24:00,62.2,55.6,30.04,SE,135,0.0,0.0,79,0.00,,,0.00,meteohub,2013-07-03 04:24:00,
2013-07-02 23:29:00,61.9,55.6,30.04,SE,135,0.0,0.0,80,0.00,,,0.00,meteohub,2013-07-03 04:29:00,
2013-07-02 23:31:00,62.1,55.8,30.04,SE,135,0.0,0.0,80,0.00,,,0.00,meteohub,2013-07-03 04:31:00,
2013-07-02 23:32:00,62.1,55.8,30.04,SE,135,0.0,0.0,80,0.00,,,0.00,meteohub,2013-07-03 04:32:00,
2013-07-02 23:37:00,61.7,55.4,30.04,SE,135,0.0,0.0,80,0.00,,,0.00,meteohub,2013-07-03 04:37:00,
2013-07-02 23:42:00,61.5,55.2,30.04,East,90,0.0,0.0,80,0.00,,,0.00,meteohub,2013-07-03 04:42:00,
2013-07-02 23:45:00,61.7,55.4,30.04,West,270,0.0,0.0,80,0.00,,,0.00,meteohub,2013-07-03 04:45:00,
2013-07-02 23:46:00,61.5,55.2,30.04,South,180,0.0,0.0,80,0.00,,,0.00,meteohub,2013-07-03 04:46:00,
2013-07-02 23:51:00,61.5,55.2,30.04,WSW,248,0.0,0.0,80,0.00,,,0.00,meteohub,2013-07-03 04:51:00,
2013-07-02 23:53:00,61.3,55.4,30.04,SW,225,0.0,0.0,81,0.00,,,0.00,meteohub,2013-07-03 04:53:00,
2013-07-02 23:58:00,61.3,55.4,30.04,WSW,248,0.0,0.0,81,0.00,,,0.00,meteohub,2013-07-03 04:58:00,